createdAt,value
2022-08-22T00:00:45.063Z,74.56
2022-08-22T00:02:52.803Z,83.93
2022-08-22T00:02:59.074Z,74.97
2022-08-22T00:03:08.817Z,83.40
2022-08-22T00:03:12.286Z,83.49
2022-08-22T00:04:01.940Z,75.31
2022-08-22T00:07:13.268Z,76.15
2022-08-22T00:10:25.566Z,75.12
2022-08-22T00:13:35.141Z,75.62
2022-08-22T00:16:47.643Z,73.82
2022-08-22T00:20:02.500Z,73.56
2022-08-22T00:23:13.337Z,75.84
2022-08-22T00:26:26.109Z,77.72
2022-08-22T00:29:36.254Z,77.64
2022-08-22T00:32:46.403Z,76.33
2022-08-22T00:36:01.310Z,75.20
2022-08-22T00:39:13.700Z,75.56
2022-08-22T00:42:37.517Z,75.76
2022-08-22T00:46:01.749Z,75.13
2022-08-22T00:49:15.801Z,74.58
2022-08-22T00:52:56.245Z,75.55
2022-08-22T00:56:21.874Z,74.72
2022-08-22T00:59:53.411Z,75.53
2022-08-22T01:03:29.247Z,73.76
2022-08-22T01:06:46.288Z,75.35
2022-08-22T01:10:02.943Z,74.95
2022-08-22T01:13:22.955Z,74.88
2022-08-22T01:16:50.513Z,75.06
2022-08-22T01:20:25.729Z,74.86
2022-08-22T01:24:03.996Z,75.38
2022-08-22T01:27:57.760Z,74.64
2022-08-22T01:31:43.098Z,76.86
2022-08-22T01:35:26.876Z,74.46
2022-08-22T01:38:55.881Z,74.22
2022-08-22T01:42:32.629Z,76.03
2022-08-22T01:46:14.969Z,77.72
2022-08-22T01:49:29.641Z,75.66
2022-08-22T01:52:43.574Z,75.12
2022-08-22T01:55:58.313Z,76.03
2022-08-22T01:59:05.850Z,75.09
2022-08-22T02:02:29.756Z,74.51
2022-08-22T02:05:38.993Z,74.75
2022-08-22T02:09:00.311Z,75.44
2022-08-22T02:12:25.759Z,75.59
2022-08-22T02:15:45.230Z,75.83
2022-08-22T02:19:04.323Z,76.03
2022-08-22T02:22:22.912Z,74.61
2022-08-22T02:25:32.785Z,75.37
2022-08-22T02:28:56.511Z,74.27
2022-08-22T02:32:06.404Z,75.82
2022-08-22T02:35:23.384Z,75.41
2022-08-22T02:38:33.398Z,76.31
2022-08-22T02:41:49.852Z,75.84
2022-08-22T02:45:02.715Z,75.72
2022-08-22T02:48:21.668Z,80.56
2022-08-22T02:51:38.036Z,77.71
2022-08-22T02:54:53.423Z,78.47
2022-08-22T02:58:06.495Z,79.15
2022-08-22T03:01:24.249Z,77.49
2022-08-22T03:04:48.312Z,79.49
2022-08-22T03:08:14.825Z,77.23
2022-08-22T03:11:25.287Z,77.30
2022-08-22T03:14:35.716Z,76.44
2022-08-22T03:17:49.208Z,75.52
2022-08-22T03:20:59.032Z,76.49
2022-08-22T03:24:12.801Z,75.66
2022-08-22T03:27:32.819Z,75.32
2022-08-22T03:30:43.810Z,77.38
2022-08-22T03:34:07.560Z,75.73
2022-08-22T03:37:19.264Z,75.42
2022-08-22T03:40:31.952Z,74.50
2022-08-22T03:44:05.335Z,74.56
2022-08-22T03:47:32.190Z,75.74
2022-08-22T03:51:05.149Z,76.18
2022-08-22T03:54:49.860Z,76.17
2022-08-22T03:58:27.682Z,74.46
2022-08-22T04:01:56.546Z,75.34
2022-08-22T04:05:20.514Z,76.85
2022-08-22T04:08:53.489Z,75.93
2022-08-22T04:12:34.951Z,76.16
2022-08-22T04:15:56.514Z,76.36
2022-08-22T04:19:24.519Z,74.78
2022-08-22T04:22:49.745Z,75.88
2022-08-22T04:25:57.678Z,75.83
2022-08-22T04:29:10.053Z,77.08
2022-08-22T04:32:22.324Z,76.47
2022-08-22T04:35:32.382Z,76.39
2022-08-22T04:38:43.288Z,77.47
2022-08-22T04:41:51.687Z,75.43
2022-08-22T04:44:59.754Z,74.52
2022-08-22T04:48:09.270Z,74.01
2022-08-22T04:51:23.363Z,74.61
2022-08-22T04:54:48.590Z,75.48
2022-08-22T04:57:58.469Z,73.01
2022-08-22T05:01:13.569Z,71.66
2022-08-22T05:04:21.878Z,69.95
2022-08-22T05:07:32.379Z,69.14
2022-08-22T05:10:46.416Z,69.31
2022-08-22T05:13:56.299Z,67.84
2022-08-22T05:17:01.549Z,66.25
2022-08-22T05:20:11.321Z,64.94
2022-08-22T05:23:21.726Z,64.29
2022-08-22T05:26:28.670Z,66.40
2022-08-22T05:29:34.215Z,65.31
2022-08-22T05:32:47.668Z,66.60
2022-08-22T05:35:57.834Z,65.64
2022-08-22T05:39:06.191Z,64.01
2022-08-22T05:42:15.728Z,63.51
2022-08-22T05:45:20.431Z,62.73
2022-08-22T05:48:32.780Z,62.62
2022-08-22T05:51:42.097Z,61.80
2022-08-22T05:54:54.945Z,61.06
2022-08-22T05:58:15.058Z,59.92
2022-08-22T06:01:39.114Z,59.18
2022-08-22T06:04:50.225Z,59.72
2022-08-22T06:07:59.587Z,58.61
2022-08-22T06:11:09.125Z,58.08
2022-08-22T06:14:26.332Z,57.65
2022-08-22T06:17:36.065Z,58.88
2022-08-22T06:20:45.284Z,59.07
2022-08-22T06:23:54.295Z,58.86
2022-08-22T06:27:09.011Z,57.70
2022-08-22T06:30:17.060Z,57.07
2022-08-22T06:33:25.532Z,56.90
2022-08-22T06:36:32.580Z,55.71
2022-08-22T06:39:38.985Z,58.17
2022-08-22T06:42:45.800Z,57.42
2022-08-22T06:45:53.062Z,57.36
2022-08-22T06:48:57.591Z,56.05
2022-08-22T06:52:08.632Z,55.46
2022-08-22T06:55:12.407Z,55.13
2022-08-22T06:58:18.799Z,53.93
2022-08-22T07:01:26.454Z,54.00
2022-08-22T07:04:30.164Z,52.72
2022-08-22T07:07:33.532Z,52.38
2022-08-22T07:10:37.726Z,52.69
2022-08-22T07:13:46.227Z,54.66
2022-08-22T07:17:00.100Z,52.70
2022-08-22T07:20:17.382Z,51.73
2022-08-22T07:23:31.645Z,52.68
2022-08-22T07:26:49.062Z,51.50
2022-08-22T07:30:04.085Z,50.66
2022-08-22T07:33:27.007Z,50.30
2022-08-22T07:36:37.876Z,49.96
2022-08-22T07:39:51.591Z,51.06
2022-08-22T07:43:04.485Z,51.19
2022-08-22T07:46:20.838Z,51.83
2022-08-22T07:49:30.430Z,50.67
2022-08-22T07:52:40.435Z,49.39
2022-08-22T07:55:49.754Z,49.75
2022-08-22T07:58:57.028Z,48.38
2022-08-22T08:02:03.300Z,48.80
2022-08-22T08:05:09.048Z,48.33
2022-08-22T08:08:20.956Z,47.17
2022-08-22T08:11:28.170Z,46.19
2022-08-22T08:14:32.606Z,45.50
2022-08-22T08:17:38.468Z,45.72
2022-08-22T08:20:43.531Z,45.94
2022-08-22T08:23:47.818Z,46.34
2022-08-22T08:27:12.781Z,45.49
2022-08-22T08:30:18.913Z,48.42
2022-08-22T08:33:26.728Z,47.54
2022-08-22T08:36:45.913Z,46.22
2022-08-22T08:39:51.618Z,45.85
2022-08-22T08:43:28.261Z,45.35
2022-08-22T08:46:57.485Z,45.90
2022-08-22T08:50:29.165Z,45.09
2022-08-22T08:54:05.847Z,44.46
2022-08-22T08:57:20.285Z,43.52
2022-08-22T09:00:45.083Z,43.46
2022-08-22T09:04:15.200Z,43.54
2022-08-22T09:07:49.376Z,43.10
2022-08-22T09:11:10.186Z,44.57
2022-08-22T09:14:39.243Z,44.89
2022-08-22T09:18:20.105Z,44.63
2022-08-22T09:22:00.852Z,44.80
2022-08-22T09:25:23.675Z,45.85
2022-08-22T09:28:41.585Z,45.54
2022-08-22T09:31:59.690Z,45.98
2022-08-22T09:35:10.320Z,44.57
2022-08-22T09:38:40.866Z,44.74
2022-08-22T09:42:01.146Z,44.31
2022-08-22T09:45:38.673Z,45.60
2022-08-22T09:48:54.203Z,43.13
2022-08-22T09:52:15.218Z,42.84
2022-08-22T09:55:35.405Z,42.75
2022-08-22T09:58:44.999Z,42.14
2022-08-22T10:02:00.981Z,42.10
2022-08-22T10:05:40.658Z,42.44
2022-08-22T10:08:46.129Z,42.91
2022-08-22T10:11:55.588Z,45.03
2022-08-22T10:15:10.947Z,45.54
2022-08-22T10:18:29.567Z,45.51
2022-08-22T10:21:43.109Z,45.54
2022-08-22T10:24:58.536Z,47.55
2022-08-22T10:28:16.023Z,47.92
2022-08-22T10:31:29.534Z,49.26
2022-08-22T10:34:42.886Z,49.45
2022-08-22T10:37:55.309Z,48.64
2022-08-22T10:41:09.473Z,48.88
2022-08-22T10:44:20.662Z,49.16
2022-08-22T10:47:34.091Z,49.49
2022-08-22T10:50:43.595Z,50.56
2022-08-22T10:54:20.151Z,49.96
2022-08-22T10:58:01.949Z,50.57
2022-08-22T11:01:37.809Z,50.05
2022-08-22T11:04:53.229Z,49.34
2022-08-22T11:08:15.088Z,48.96
2022-08-22T11:11:32.536Z,50.80
2022-08-22T11:15:03.085Z,51.23
2022-08-22T11:18:30.578Z,52.00
2022-08-22T11:21:50.847Z,51.90
2022-08-22T11:25:35.719Z,51.55
2022-08-22T11:29:13.850Z,51.76
2022-08-22T11:32:25.912Z,51.39
2022-08-22T11:35:38.219Z,51.61
2022-08-22T11:39:01.182Z,51.53
2022-08-22T11:42:11.662Z,51.52
2022-08-22T11:45:22.407Z,51.62
2022-08-22T11:48:35.371Z,52.03
2022-08-22T11:52:00.652Z,51.94
2022-08-22T11:55:24.089Z,52.05
2022-08-22T11:58:41.283Z,52.61
2022-08-22T12:01:52.694Z,53.52
2022-08-22T12:05:00.000Z,55.27
2022-08-22T12:08:12.496Z,56.34
2022-08-22T12:11:23.587Z,56.73
2022-08-22T12:14:34.710Z,57.57
2022-08-22T12:18:09.604Z,57.33
2022-08-22T12:21:28.503Z,58.33
2022-08-22T12:24:47.784Z,57.69
2022-08-22T12:28:00.430Z,58.22
2022-08-22T12:31:14.805Z,59.85
2022-08-22T12:34:28.062Z,59.59
2022-08-22T12:38:26.672Z,58.83
2022-08-22T12:41:28.328Z,58.32
2022-08-22T12:44:52.963Z,57.70
2022-08-22T12:48:10.037Z,57.38
2022-08-22T12:51:33.060Z,57.44
2022-08-22T12:54:50.261Z,58.99
2022-08-22T12:58:03.724Z,57.55
2022-08-22T13:01:09.484Z,57.49
2022-08-22T13:04:32.555Z,58.46
2022-08-22T13:07:40.646Z,57.70
2022-08-22T13:10:48.791Z,59.04
2022-08-22T13:13:57.943Z,58.89
2022-08-22T13:17:15.179Z,59.64
2022-08-22T13:20:32.861Z,58.80
2022-08-22T13:23:43.139Z,58.14
2022-08-22T13:26:49.719Z,57.67
2022-08-22T13:29:58.746Z,58.33
2022-08-22T13:33:09.840Z,58.17
2022-08-22T13:36:18.277Z,58.61
2022-08-22T13:39:28.164Z,57.69
2022-08-22T13:42:34.984Z,57.23
2022-08-22T13:45:54.012Z,58.43
2022-08-22T13:49:01.350Z,58.54
2022-08-22T13:52:29.199Z,58.57
2022-08-22T13:55:43.265Z,59.49
2022-08-22T13:58:51.641Z,59.37
2022-08-22T14:02:00.504Z,60.60
2022-08-22T14:05:09.242Z,60.31
2022-08-22T14:08:23.281Z,60.95
2022-08-22T14:11:37.085Z,61.71
2022-08-22T14:14:42.508Z,62.62
2022-08-22T14:17:49.179Z,62.25
2022-08-22T14:20:53.332Z,61.80
2022-08-22T14:24:00.284Z,62.67
2022-08-22T14:27:09.252Z,62.39
2022-08-22T14:30:17.157Z,62.93
2022-08-22T14:33:25.461Z,63.32
2022-08-22T14:36:49.230Z,63.57
2022-08-22T14:40:00.962Z,65.56
2022-08-22T14:43:10.493Z,67.68
2022-08-22T14:46:19.927Z,68.13
2022-08-22T14:49:31.722Z,69.97
2022-08-22T14:52:40.598Z,71.23
2022-08-22T14:55:44.168Z,72.04
2022-08-22T14:58:52.716Z,73.46
2022-08-22T15:01:59.905Z,74.56
2022-08-22T15:05:18.077Z,73.29
2022-08-22T15:08:30.280Z,76.31
2022-08-22T15:11:34.543Z,76.13
2022-08-22T15:14:52.331Z,74.98
2022-08-22T15:17:57.044Z,75.10
2022-08-22T15:21:06.913Z,73.53
2022-08-22T15:24:15.570Z,73.22
2022-08-22T15:27:22.452Z,74.09
2022-08-22T15:30:44.221Z,75.66
2022-08-22T15:33:49.429Z,76.77
2022-08-22T15:37:10.991Z,77.02
2022-08-22T15:40:33.266Z,77.95
2022-08-22T15:43:46.104Z,78.59
2022-08-22T15:47:01.298Z,81.14
2022-08-22T15:50:09.517Z,81.16
2022-08-22T15:53:24.126Z,80.34
2022-08-22T15:56:29.851Z,81.30
2022-08-22T15:59:48.148Z,79.77
2022-08-22T16:03:04.323Z,80.00
2022-08-22T16:06:11.264Z,81.32
2022-08-22T16:09:34.059Z,81.52
2022-08-22T16:12:41.101Z,81.05
2022-08-22T16:16:10.026Z,82.72
2022-08-22T16:19:25.425Z,83.46
2022-08-22T16:23:07.552Z,83.36
2022-08-22T16:26:17.436Z,85.58
2022-08-22T16:29:41.237Z,86.98
2022-08-22T16:32:57.718Z,87.02
2022-08-22T16:36:40.361Z,83.79
2022-08-22T16:39:48.118Z,84.91
2022-08-22T16:43:10.994Z,84.47
2022-08-22T16:46:34.613Z,83.75
2022-08-22T16:49:54.744Z,81.91
2022-08-22T16:53:02.024Z,84.13
2022-08-22T16:56:28.348Z,83.43
2022-08-22T16:59:40.940Z,81.25
2022-08-22T17:02:58.784Z,80.57
2022-08-22T17:06:25.923Z,82.01
2022-08-22T17:09:46.446Z,79.57
2022-08-22T17:13:06.363Z,79.41
2022-08-22T17:16:25.131Z,80.52
2022-08-22T17:19:49.096Z,80.26
2022-08-22T17:22:58.233Z,79.46
2022-08-22T17:26:20.544Z,79.76
2022-08-22T17:29:39.395Z,77.74
2022-08-22T17:32:59.755Z,77.85
2022-08-22T17:36:26.348Z,76.85
2022-08-22T17:39:54.570Z,76.89
2022-08-22T17:43:27.547Z,76.71
2022-08-22T17:46:51.132Z,76.17
2022-08-22T17:50:01.168Z,76.27
2022-08-22T17:53:10.340Z,77.40
2022-08-22T17:56:21.316Z,77.01
2022-08-22T17:59:29.101Z,80.99
2022-08-22T18:02:39.447Z,78.82
2022-08-22T18:05:49.911Z,80.27
2022-08-22T18:09:13.656Z,78.81
2022-08-22T18:12:22.128Z,80.82
2022-08-22T18:15:31.553Z,82.23
2022-08-22T18:18:40.151Z,80.69
2022-08-22T18:21:49.685Z,81.74
2022-08-22T18:24:58.819Z,80.84
2022-08-22T18:28:06.516Z,79.61
2022-08-22T18:31:16.946Z,77.77
2022-08-22T18:34:31.529Z,76.50
2022-08-22T18:37:50.890Z,75.68
2022-08-22T18:41:09.973Z,75.05
2022-08-22T18:44:19.521Z,74.80
2022-08-22T18:47:25.936Z,75.21
2022-08-22T18:50:34.616Z,74.92
2022-08-22T18:53:42.143Z,74.07
2022-08-22T18:56:51.606Z,73.70
2022-08-22T19:00:08.793Z,72.54
2022-08-22T19:03:39.609Z,72.22
2022-08-22T19:07:04.834Z,71.57
2022-08-22T19:10:34.537Z,70.52
2022-08-22T19:13:54.322Z,70.69
2022-08-22T19:17:34.523Z,73.03
2022-08-22T19:20:57.365Z,72.28
2022-08-22T19:24:02.897Z,72.15
2022-08-22T19:27:31.009Z,71.59
2022-08-22T19:30:45.447Z,72.07
2022-08-22T19:33:50.284Z,71.68
2022-08-22T19:37:34.185Z,71.48
2022-08-22T19:40:55.886Z,72.46
2022-08-22T19:44:02.007Z,72.82
2022-08-22T19:47:24.352Z,72.64
2022-08-22T19:50:33.273Z,73.30
2022-08-22T19:53:47.606Z,73.70
2022-08-22T19:57:07.388Z,74.49
2022-08-22T20:00:18.782Z,73.61
2022-08-22T20:03:33.576Z,74.37
2022-08-22T20:06:44.687Z,75.34
2022-08-22T20:10:01.835Z,74.87
2022-08-22T20:13:11.995Z,75.30
2022-08-22T20:16:19.406Z,75.73
2022-08-22T20:19:22.915Z,76.41
2022-08-22T20:22:30.621Z,77.52
2022-08-22T20:25:44.192Z,79.11
2022-08-22T20:28:52.484Z,77.71
2022-08-22T20:31:58.793Z,78.73
2022-08-22T20:35:05.068Z,76.87
2022-08-22T20:38:11.407Z,77.78
2022-08-22T20:41:22.538Z,77.15
2022-08-22T20:44:33.569Z,78.08
2022-08-22T20:47:41.794Z,78.79
2022-08-22T20:50:46.179Z,78.82
2022-08-22T20:53:53.374Z,78.60
2022-08-22T20:57:00.128Z,78.89
2022-08-22T21:00:11.715Z,78.89
2022-08-22T21:03:25.959Z,78.41
2022-08-22T21:06:34.313Z,76.16
2022-08-22T21:09:55.198Z,76.32
2022-08-22T21:13:10.454Z,75.70
2022-08-22T21:16:18.865Z,76.00
2022-08-22T21:19:27.325Z,75.39
2022-08-22T21:22:34.655Z,75.50
2022-08-22T21:25:51.785Z,75.02
2022-08-22T21:29:00.238Z,76.96
2022-08-22T21:32:18.124Z,78.51
2022-08-22T21:35:29.529Z,78.28
2022-08-22T21:38:32.869Z,76.69
2022-08-22T21:41:41.405Z,76.86
2022-08-22T21:44:57.455Z,76.20
2022-08-22T21:48:02.852Z,75.64
2022-08-22T21:51:30.148Z,77.04
2022-08-22T21:54:42.598Z,78.47
2022-08-22T21:57:46.055Z,78.38
2022-08-22T22:00:52.055Z,77.23
2022-08-22T22:03:57.992Z,77.10
2022-08-22T22:07:01.412Z,77.42
2022-08-22T22:10:05.799Z,78.06
2022-08-22T22:13:09.672Z,78.06
2022-08-22T22:16:13.890Z,79.35
2022-08-22T22:19:18.655Z,79.17
2022-08-22T22:22:22.567Z,79.48
2022-08-22T22:25:39.685Z,80.23
2022-08-22T22:28:48.498Z,80.42
2022-08-22T22:31:52.367Z,81.17
2022-08-22T22:34:57.094Z,82.14
2022-08-22T22:38:00.506Z,80.62
2022-08-22T22:41:04.007Z,80.75
2022-08-22T22:44:07.299Z,80.41
2022-08-22T22:47:10.660Z,81.41
2022-08-22T22:50:15.416Z,82.95
2022-08-22T22:53:21.317Z,81.83
2022-08-22T22:56:31.733Z,81.96
2022-08-22T22:59:35.380Z,82.35
2022-08-22T23:02:38.688Z,85.94
2022-08-22T23:05:43.404Z,84.53
2022-08-22T23:08:47.400Z,87.31
2022-08-22T23:11:51.093Z,85.37
2022-08-22T23:14:54.400Z,83.75
2022-08-22T23:17:58.422Z,82.92
2022-08-22T23:21:13.025Z,82.91
2022-08-22T23:24:16.487Z,83.70
2022-08-22T23:27:19.844Z,85.64
2022-08-22T23:30:23.212Z,82.81
2022-08-22T23:33:26.595Z,81.88
2022-08-22T23:36:31.493Z,82.70
2022-08-22T23:39:36.281Z,82.65
2022-08-22T23:42:39.587Z,81.33
2022-08-22T23:45:42.879Z,81.67
2022-08-22T23:48:46.694Z,80.46
2022-08-22T23:51:52.055Z,81.29
2022-08-22T23:54:55.931Z,80.91
2022-08-22T23:57:59.405Z,80.19
